Time;durP1;ratioP1;P1;durP2;ratioP2;P2;SDS_P1;SDS_P2;PMS_P1;PMS_P2;Temp;Humidity;BMP_temperature;BMP_pressure;BME280_temperature;BME280_humidity;BME280_pressure;Samples;Min_cycle;Max_cycle;Signal;HPM_P1;HPM_P2
2021/04/03 00:00:47;;;;;;;3.20;1.77;;;;;;;7.77;50.12;101041.03;6219514;23;20079;-82
2021/04/03 00:03:14;;;;;;;3.88;1.70;;;;;;;7.77;50.27;101041.91;6219785;23;20473;-82
2021/04/03 00:05:42;;;;;;;2.63;1.48;;;;;;;7.79;49.68;101042.75;6221367;23;20036;-82
2021/04/03 00:08:09;;;;;;;3.92;1.67;;;;;;;7.82;50.02;101044.44;6224575;23;20419;-84
2021/04/03 00:10:49;;;;;;;5.82;1.92;;;;;;;7.83;50.35;101041.75;6206247;23;20021;-84
2021/04/03 00:13:18;;;;;;;4.45;2.22;;;;;;;7.83;49.45;101036.50;6236336;23;20025;-83
2021/04/03 00:15:46;;;;;;;3.92;1.80;;;;;;;7.85;49.11;101039.09;6225841;23;20020;-83
2021/04/03 00:18:16;;;;;;;3.33;1.77;;;;;;;7.83;49.46;101047.03;6219876;23;20055;-84
2021/04/03 00:20:45;;;;;;;3.65;2.10;;;;;;;7.85;49.85;101034.69;6199668;23;20036;-83
2021/04/03 00:23:12;;;;;;;4.40;1.77;;;;;;;7.83;49.81;101044.41;6206761;23;20056;-83
2021/04/03 00:25:38;;;;;;;3.80;1.75;;;;;;;7.78;49.69;101030.47;6230263;23;20024;-83
2021/04/03 00:28:04;;;;;;;4.30;2.10;;;;;;;7.72;50.10;101028.84;6225199;23;20078;-83
2021/04/03 00:30:30;;;;;;;5.22;2.05;;;;;;;7.72;50.28;101030.59;6228658;23;20782;-82
2021/04/03 00:33:02;;;;;;;4.55;2.13;;;;;;;7.67;50.40;101016.69;6232588;23;20076;-84
2021/04/03 00:35:30;;;;;;;3.55;1.92;;;;;;;7.65;50.00;101022.00;6233311;23;20036;-80
2021/04/03 00:37:58;;;;;;;3.40;1.90;;;;;;;7.67;50.39;101020.19;6233580;23;20016;-83
2021/04/03 00:40:27;;;;;;;3.42;2.00;;;;;;;7.65;50.67;101021.13;6235493;23;20031;-82
2021/04/03 00:42:54;;;;;;;4.88;2.30;;;;;;;7.65;50.56;101022.00;6237227;23;20027;-82
2021/04/03 00:45:22;;;;;;;4.47;2.00;;;;;;;7.64;50.57;101024.66;6235268;23;20021;-82
2021/04/03 00:47:49;;;;;;;4.90;2.13;;;;;;;7.60;50.64;101020.38;6229523;23;20040;-83
2021/04/03 00:50:29;;;;;;;3.63;2.13;;;;;;;7.50;50.89;101013.59;6225913;23;20044;-83
2021/04/03 00:52:56;;;;;;;4.68;2.38;;;;;;;7.45;51.30;101018.13;6231009;23;20025;-82
2021/04/03 00:55:22;;;;;;;3.83;2.28;;;;;;;7.40;52.33;101011.16;6234005;23;20036;-83
2021/04/03 00:57:49;;;;;;;7.03;2.22;;;;;;;7.35;52.05;101022.75;6238077;23;20035;-82
2021/04/03 01:00:17;;;;;;;4.22;2.53;;;;;;;7.29;52.88;101017.63;6240105;23;20012;-83
2021/04/03 01:02:44;;;;;;;4.70;2.35;;;;;;;7.28;52.74;101019.38;6239784;23;20040;-82
2021/04/03 01:05:16;;;;;;;6.50;2.83;;;;;;;7.25;52.82;101019.44;6240086;23;20009;-83
2021/04/03 01:07:46;;;;;;;6.65;3.03;;;;;;;7.20;52.83;101016.06;6214614;23;20020;-82
2021/04/03 01:10:21;;;;;;;6.47;2.80;;;;;;;7.17;52.80;101020.53;6238698;23;20028;-82
2021/04/03 01:13:09;;;;;;;9.32;3.30;;;;;;;7.13;53.10;101030.28;6217416;23;20091;-83
2021/04/03 01:16:00;;;;;;;4.18;2.63;;;;;;;7.09;53.58;101030.38;6225775;23;20024;-82
2021/04/03 01:18:56;;;;;;;7.57;2.67;;;;;;;7.11;53.60;101018.91;6159211;23;20025;-83
2021/04/03 01:21:49;;;;;;;5.18;2.83;;;;;;;7.18;53.86;101024.91;6230789;23;20142;-83
2021/04/03 01:24:26;;;;;;;7.38;2.97;;;;;;;7.23;53.56;101013.38;6230843;23;20032;-80
2021/04/03 01:27:33;;;;;;;7.88;2.92;;;;;;;7.24;53.92;101020.34;6227937;23;20105;-83
2021/04/03 01:30:05;;;;;;;4.25;2.58;;;;;;;7.24;53.68;101015.06;6172143;23;20036;-82
2021/04/03 01:32:47;;;;;;;5.38;2.42;;;;;;;7.26;53.40;101017.69;6211362;23;20024;-80
2021/04/03 01:35:19;;;;;;;6.80;2.78;;;;;;;7.26;53.92;101015.91;6226348;23;20075;-81
2021/04/03 01:37:55;;;;;;;6.10;2.55;;;;;;;7.31;53.92;101018.44;6224594;23;20048;-83
2021/04/03 01:40:22;;;;;;;5.32;2.45;;;;;;;7.29;53.66;101022.88;6198142;23;20024;-82
2021/04/03 01:43:08;;;;;;;4.78;3.05;;;;;;;7.31;53.93;101028.97;6233762;23;20043;-82
2021/04/03 01:45:38;;;;;;;6.20;2.55;;;;;;;7.29;53.59;101026.38;6202465;23;20055;-82
2021/04/03 01:48:10;;;;;;;5.75;3.15;;;;;;;7.28;53.76;101032.56;6224290;23;20024;-81
2021/04/03 01:50:40;;;;;;;7.63;2.70;;;;;;;7.29;54.02;101038.69;6197734;23;20047;-82
2021/04/03 01:53:06;;;;;;;5.13;2.20;;;;;;;7.29;53.91;101036.91;6190135;23;20044;-83
2021/04/03 01:55:33;;;;;;;6.80;2.67;;;;;;;7.25;54.07;101027.34;6217993;23;20027;-83
2021/04/03 01:58:00;;;;;;;5.60;2.78;;;;;;;7.24;54.14;101032.69;6218594;23;20467;-83
2021/04/03 02:00:28;;;;;;;5.93;2.58;;;;;;;7.28;54.37;101042.22;6216762;23;20349;-84
2021/04/03 02:02:55;;;;;;;5.43;2.40;;;;;;;7.29;54.21;101034.28;6219836;23;20024;-83
2021/04/03 02:05:22;;;;;;;4.22;2.30;;;;;;;7.34;54.27;101034.19;6217916;23;20350;-83
2021/04/03 02:07:52;;;;;;;4.63;2.67;;;;;;;7.34;54.58;101031.56;6216891;23;20776;-83
2021/04/03 02:10:23;;;;;;;5.80;2.67;;;;;;;7.30;54.76;101017.56;6217229;23;20020;-83
2021/04/03 02:12:51;;;;;;;8.20;2.92;;;;;;;7.32;54.59;101030.72;6214884;23;20020;-82
2021/04/03 02:15:18;;;;;;;5.50;2.70;;;;;;;7.32;54.77;101031.59;6218045;23;20016;-82
2021/04/03 02:17:48;;;;;;;4.45;2.30;;;;;;;7.30;54.25;101025.47;6217194;23;20059;-82
2021/04/03 02:20:14;;;;;;;8.13;2.70;;;;;;;7.29;54.63;101034.28;6190386;23;20111;-83
2021/04/03 02:22:44;;;;;;;6.65;2.85;;;;;;;7.27;55.12;101028.19;6218561;23;20087;-83
2021/04/03 02:25:13;;;;;;;8.30;2.97;;;;;;;7.27;55.09;101035.22;6217218;23;20051;-83
2021/04/03 02:27:41;;;;;;;6.63;2.85;;;;;;;7.21;55.28;101030.97;6226543;23;20519;-83
2021/04/03 02:30:17;;;;;;;5.72;3.38;;;;;;;7.13;55.77;101032.91;6224068;23;20021;-83
2021/04/03 02:32:48;;;;;;;5.80;3.13;;;;;;;7.08;55.59;101032.16;6220506;23;20021;-83
2021/04/03 02:35:16;;;;;;;5.55;2.90;;;;;;;6.97;56.25;101023.63;6214283;23;20164;-83
2021/04/03 02:37:44;;;;;;;5.72;3.40;;;;;;;6.82;56.92;101027.44;6216476;23;20068;-83
2021/04/03 02:40:14;;;;;;;8.55;3.65;;;;;;;6.73;57.38;101032.06;6192121;23;20088;-83
2021/04/03 02:42:51;;;;;;;7.40;3.30;;;;;;;6.65;58.08;101032.19;6216986;23;20103;-83
2021/04/03 02:45:19;;;;;;;6.45;3.30;;;;;;;6.60;57.97;101041.97;6219056;23;20067;-83
2021/04/03 02:47:48;;;;;;;6.05;2.80;;;;;;;6.67;58.17;101041.81;6225405;23;20032;-83
2021/04/03 02:50:17;;;;;;;7.22;3.75;;;;;;;6.63;58.19;101036.63;6214011;23;20020;-81
2021/04/03 02:52:50;;;;;;;6.85;3.55;;;;;;;6.61;58.58;101035.81;6239008;23;20225;-82
2021/04/03 02:55:18;;;;;;;9.15;3.25;;;;;;;6.59;58.54;101041.09;6238166;23;20008;-82
2021/04/03 02:57:48;;;;;;;7.53;3.22;;;;;;;6.49;58.61;101043.94;6225262;23;20021;-83
2021/04/03 03:00:15;;;;;;;8.38;3.33;;;;;;;6.48;58.85;101042.19;6217715;23;20072;-83
2021/04/03 03:02:42;;;;;;;8.30;3.47;;;;;;;6.41;59.87;101035.34;6214001;23;20091;-83
2021/04/03 03:05:09;;;;;;;7.75;3.55;;;;;;;6.41;59.46;101041.47;6189147;23;20031;-83
2021/04/03 03:07:40;;;;;;;8.80;3.60;;;;;;;6.35;59.53;101036.31;6218575;23;20055;-83
2021/04/03 03:10:08;;;;;;;6.53;3.60;;;;;;;6.34;59.83;101045.97;6214383;23;20055;-83
2021/04/03 03:12:37;;;;;;;9.50;3.53;;;;;;;6.32;60.11;101036.38;6217454;23;20025;-83
2021/04/03 03:15:05;;;;;;;7.00;3.45;;;;;;;6.28;60.20;101040.84;6214917;23;20017;-83
2021/04/03 03:17:31;;;;;;;8.90;3.75;;;;;;;6.26;60.17;101055.78;6216425;23;20067;-83
2021/04/03 03:20:01;;;;;;;10.20;3.88;;;;;;;6.24;60.54;101046.19;6218222;23;20104;-83
2021/04/03 03:22:27;;;;;;;10.85;3.67;;;;;;;6.23;60.75;101054.97;6188944;23;20056;-83
2021/04/03 03:24:54;;;;;;;7.90;3.90;;;;;;;6.20;61.35;101055.03;6191769;23;20036;-82
2021/04/03 03:27:20;;;;;;;7.88;3.40;;;;;;;6.21;61.07;101054.13;6217350;23;20052;-83
2021/04/03 03:29:47;;;;;;;9.32;3.58;;;;;;;6.23;60.90;101055.84;6217496;23;20059;-82
2021/04/03 03:32:13;;;;;;;7.95;3.08;;;;;;;6.24;60.66;101059.34;6215932;23;20076;-81
2021/04/03 03:34:39;;;;;;;5.15;3.22;;;;;;;6.27;61.01;101056.66;6217774;23;20545;-83
2021/04/03 03:37:05;;;;;;;7.75;3.50;;;;;;;6.30;60.49;101059.19;6220447;23;20099;-82
2021/04/03 03:39:33;;;;;;;8.75;3.97;;;;;;;6.30;60.40;101065.31;6220117;23;20024;-82
2021/04/03 03:42:00;;;;;;;6.07;3.20;;;;;;;6.32;60.79;101066.16;6221747;23;20032;-82
2021/04/03 03:44:28;;;;;;;10.55;3.35;;;;;;;6.25;60.57;101059.31;6231197;23;20016;-82
2021/04/03 03:46:54;;;;;;;6.15;3.38;;;;;;;6.25;60.75;101059.31;6220136;23;20156;-83
2021/04/03 03:49:20;;;;;;;7.60;3.90;;;;;;;6.25;60.82;101063.69;6235243;23;20017;-82
2021/04/03 03:51:47;;;;;;;6.95;3.53;;;;;;;6.14;61.66;101052.53;6203683;23;20107;-83
2021/04/03 03:54:15;;;;;;;6.18;3.40;;;;;;;6.15;61.73;101067.38;6216640;23;20100;-83
2021/04/03 03:56:42;;;;;;;7.55;3.28;;;;;;;6.15;61.75;101070.00;6216304;23;20023;-83
2021/04/03 03:59:08;;;;;;;7.68;3.45;;;;;;;6.16;61.85;101066.47;6217464;23;20445;-83
2021/04/03 04:01:34;;;;;;;6.93;3.42;;;;;;;6.18;62.32;101080.47;6219024;23;20382;-83
2021/04/03 04:04:00;;;;;;;9.35;3.35;;;;;;;6.20;62.19;101074.28;6217673;23;20048;-83
2021/04/03 04:06:27;;;;;;;7.80;3.50;;;;;;;6.18;61.35;101081.34;6217070;23;20051;-83
2021/04/03 04:08:54;;;;;;;7.93;3.13;;;;;;;6.16;61.90;101087.53;6192573;23;20055;-83
2021/04/03 04:11:20;;;;;;;8.35;3.58;;;;;;;6.10;62.12;101077.13;6215914;23;20091;-83
2021/04/03 04:13:46;;;;;;;6.07;3.42;;;;;;;6.11;61.97;101079.72;6189457;23;20012;-83
2021/04/03 04:16:12;;;;;;;9.07;3.80;;;;;;;6.10;61.89;101079.75;6185983;23;20063;-83
2021/04/03 04:18:39;;;;;;;8.18;3.15;;;;;;;6.10;61.98;101078.00;6215878;23;20028;-82
2021/04/03 04:21:05;;;;;;;7.93;3.15;;;;;;;6.13;62.10;101082.34;6214598;23;20103;-83
2021/04/03 04:23:31;;;;;;;5.05;3.05;;;;;;;6.06;61.70;101072.81;6221760;23;20090;-83
2021/04/03 04:25:58;;;;;;;7.05;3.20;;;;;;;5.96;62.47;101078.25;6226635;23;20592;-83
2021/04/03 04:28:24;;;;;;;7.65;3.38;;;;;;;5.88;62.06;101084.47;6230302;23;20032;-83
2021/04/03 04:30:52;;;;;;;7.80;3.50;;;;;;;5.85;62.51;101092.41;6236043;23;20031;-83
2021/04/03 04:33:18;;;;;;;8.05;3.15;;;;;;;5.85;62.37;101106.41;6226939;23;20016;-82
2021/04/03 04:35:44;;;;;;;6.32;3.22;;;;;;;5.94;62.78;101111.56;6220921;23;20076;-83
2021/04/03 04:38:12;;;;;;;9.05;3.72;;;;;;;6.02;61.95;101116.69;6220054;23;20020;-82
2021/04/03 04:40:39;;;;;;;7.43;3.58;;;;;;;6.01;61.75;101119.34;6231701;23;20019;-82
2021/04/03 04:43:08;;;;;;;5.63;3.13;;;;;;;6.03;62.51;101125.44;6237895;23;20052;-82
2021/04/03 04:45:34;;;;;;;7.65;3.17;;;;;;;6.04;62.22;101127.19;6234665;23;20012;-83
2021/04/03 04:48:00;;;;;;;9.63;3.35;;;;;;;5.95;62.19;101128.22;6220945;23;20017;-82
2021/04/03 04:50:28;;;;;;;8.40;3.63;;;;;;;5.90;62.74;101135.28;6221008;23;20040;-83
2021/04/03 04:52:55;;;;;;;7.90;3.20;;;;;;;5.95;62.86;101144.00;6217564;23;20574;-83
2021/04/03 04:55:21;;;;;;;8.18;3.53;;;;;;;6.01;62.42;101132.47;6221133;23;20021;-83
2021/04/03 04:57:47;;;;;;;7.50;3.05;;;;;;;6.00;62.49;101139.50;6219413;23;20021;-83
2021/04/03 05:00:15;;;;;;;6.60;3.28;;;;;;;5.98;62.63;101138.69;6221471;23;20024;-82
2021/04/03 05:02:41;;;;;;;6.10;3.17;;;;;;;5.98;62.52;101138.69;6226025;23;20024;-81
2021/04/03 05:05:08;;;;;;;9.65;4.13;;;;;;;5.91;62.12;101144.91;6220477;23;20520;-82
2021/04/03 05:07:35;;;;;;;7.72;3.55;;;;;;;5.89;62.78;101147.56;6230660;23;20078;-83
2021/04/03 05:10:02;;;;;;;10.07;3.20;;;;;;;5.87;62.42;101146.69;6225860;23;20308;-82
2021/04/03 05:12:28;;;;;;;7.97;3.58;;;;;;;5.82;62.95;101150.31;6220160;23;20075;-82
2021/04/03 05:14:55;;;;;;;9.48;3.75;;;;;;;5.77;62.88;101158.25;6219423;23;20043;-82
2021/04/03 05:17:22;;;;;;;6.75;3.30;;;;;;;5.71;63.05;101158.31;6221879;23;20084;-83
2021/04/03 05:19:53;;;;;;;9.85;3.97;;;;;;;5.75;62.78;101165.28;6233311;23;20029;-83
2021/04/03 05:22:19;;;;;;;10.38;3.83;;;;;;;5.80;63.46;101157.34;6230245;23;20059;-84
2021/04/03 05:24:45;;;;;;;7.72;4.28;;;;;;;5.84;63.39;101159.88;6220023;23;20860;-81
2021/04/03 05:27:12;;;;;;;9.40;3.75;;;;;;;5.91;62.70;101166.81;6218065;23;20341;-83
2021/04/03 05:29:38;;;;;;;6.20;3.20;;;;;;;5.92;62.66;101163.28;6217111;23;20076;-82
2021/04/03 05:32:05;;;;;;;10.60;3.83;;;;;;;5.84;63.07;101167.75;6217701;23;20048;-83
2021/04/03 05:34:33;;;;;;;11.20;3.65;;;;;;;5.85;63.03;101171.25;6191049;23;20112;-83
2021/04/03 05:37:16;;;;;;;11.15;3.67;;;;;;;5.77;63.10;101171.38;6219084;23;20437;-81
2021/04/03 05:39:42;;;;;;;9.20;3.35;;;;;;;5.66;63.43;101172.44;6218065;23;20063;-81
2021/04/03 05:42:14;;;;;;;;;;;;;;;5.59;64.02;101182.16;6218401;23;20072;-82
2021/04/03 05:44:41;;;;;;;10.02;3.72;;;;;;;5.50;64.15;101174.41;6221740;23;19927;-82
2021/04/03 05:47:08;;;;;;;6.15;3.35;;;;;;;5.57;64.20;101176.91;6193278;23;20028;-83
2021/04/03 05:49:35;;;;;;;9.23;3.67;;;;;;;5.60;64.52;101183.91;6219261;23;20024;-82
2021/04/03 05:52:03;;;;;;;14.05;3.72;;;;;;;5.61;64.12;101188.25;6192346;23;20044;-82
2021/04/03 05:54:30;;;;;;;7.13;3.70;;;;;;;5.63;63.95;101187.34;6215823;23;20055;-83
2021/04/03 05:56:57;;;;;;;10.93;3.55;;;;;;;5.61;64.13;101189.13;6221179;23;20374;-82
2021/04/03 05:59:23;;;;;;;14.35;3.70;;;;;;;5.63;63.55;101184.72;6219432;23;20044;-82
2021/04/03 06:01:49;;;;;;;8.02;2.92;;;;;;;5.65;63.76;101189.97;6225970;23;20112;-83
2021/04/03 06:04:15;;;;;;;10.75;3.58;;;;;;;5.64;63.85;101190.84;6235348;23;20391;-82
2021/04/03 06:06:42;;;;;;;9.27;3.25;;;;;;;5.73;63.75;101195.97;6231550;23;20056;-81
2021/04/03 06:09:08;;;;;;;7.47;3.05;;;;;;;5.84;63.45;101198.44;6228077;23;20047;-81
2021/04/03 06:11:50;;;;;;;12.50;3.42;;;;;;;5.84;63.16;101204.56;6232562;23;20017;-82
2021/04/03 06:14:18;;;;;;;14.48;3.50;;;;;;;5.86;65.23;101215.91;6230185;23;20045;-83
2021/04/03 06:16:49;;;;;;;7.80;2.90;;;;;;;5.88;63.00;101216.81;6236088;23;20071;-80
2021/04/03 06:19:20;;;;;;;10.23;3.20;;;;;;;5.93;64.42;101228.13;6234437;23;20051;-80
2021/04/03 06:21:53;;;;;;;9.82;3.20;;;;;;;5.97;62.93;101226.34;6236290;23;20021;-80
2021/04/03 06:24:33;;;;;;;9.48;2.90;;;;;;;6.01;63.44;101219.25;6202292;23;20029;-82
2021/04/03 06:27:09;;;;;;;10.68;3.28;;;;;;;6.04;62.85;101224.47;6237799;23;20016;-81
2021/04/03 06:29:41;;;;;;;9.30;3.30;;;;;;;6.03;62.81;101220.09;6236657;23;20016;-82
2021/04/03 06:32:35;;;;;;;9.98;2.90;;;;;;;6.01;62.66;101220.09;6233128;23;20032;-81
2021/04/03 06:35:03;;;;;;;10.90;3.13;;;;;;;6.02;62.89;101228.88;6230548;23;20041;-82
2021/04/03 06:37:34;;;;;;;12.88;2.92;;;;;;;5.94;63.21;101229.00;6231547;23;20050;-82
2021/04/03 06:40:05;;;;;;;12.60;3.38;;;;;;;6.13;62.98;101232.22;6229878;23;20016;-81
2021/04/03 06:42:40;;;;;;;12.10;2.95;;;;;;;6.37;61.88;101234.44;6238314;23;20031;-82
2021/04/03 06:45:21;;;;;;;9.93;2.90;;;;;;;7.90;58.26;101229.69;6236910;23;20036;-81
2021/04/03 06:47:49;;;;;;;10.40;3.05;;;;;;;9.70;53.13;101231.13;6228390;23;20028;-82
2021/04/03 06:50:16;;;;;;;5.00;2.40;;;;;;;10.96;48.18;101228.78;6224119;23;20077;-82
2021/04/03 06:52:42;;;;;;;5.85;2.50;;;;;;;11.71;46.11;101232.19;6222343;23;20056;-83
2021/04/03 06:55:11;;;;;;;6.13;2.40;;;;;;;12.55;44.21;101227.06;6224214;23;20207;-83
2021/04/03 06:57:41;;;;;;;11.60;2.97;;;;;;;12.66;42.84;101235.44;6225823;23;20072;-83
2021/04/03 07:00:08;;;;;;;7.17;3.27;;;;;;;13.06;42.09;101244.38;6226445;23;20024;-83
2021/04/03 07:03:02;;;;;;;7.32;2.47;;;;;;;13.57;40.78;101238.53;6225673;23;20470;-83
2021/04/03 07:05:34;;;;;;;5.80;2.20;;;;;;;14.38;39.02;101236.38;6233700;23;20021;-83
2021/04/03 07:08:03;;;;;;;6.03;2.90;;;;;;;15.24;37.68;101248.03;6235265;23;20079;-83
2021/04/03 07:10:31;;;;;;;4.97;2.63;;;;;;;15.74;35.85;101248.88;6211016;23;20059;-84
2021/04/03 07:12:59;;;;;;;5.50;2.63;;;;;;;16.13;35.09;101250.28;6235418;23;20055;-82
2021/04/03 07:15:28;;;;;;;7.25;2.35;;;;;;;16.35;34.29;101240.09;6237221;23;20013;-82
2021/04/03 07:18:06;;;;;;;4.50;2.20;;;;;;;16.14;34.61;101239.50;6237556;23;20196;-81
2021/04/03 07:20:36;;;;;;;7.38;2.58;;;;;;;16.29;33.82;101247.59;6235122;23;20008;-79
2021/04/03 07:23:08;;;;;;;6.85;3.03;;;;;;;15.85;35.43;101242.09;6203178;23;20020;-80
2021/04/03 07:25:38;;;;;;;10.00;2.60;;;;;;;16.42;33.75;101241.44;6237250;23;20008;-84
2021/04/03 07:28:05;;;;;;;4.30;2.10;;;;;;;16.76;33.15;101223.47;6240659;23;20012;-83
2021/04/03 07:30:35;;;;;;;6.97;2.28;;;;;;;16.92;32.27;101256.38;6241865;23;20092;-82
2021/04/03 07:33:13;;;;;;;6.40;2.20;;;;;;;16.97;32.00;101256.13;6243076;23;20011;-82
2021/04/03 07:35:51;;;;;;;5.63;2.10;;;;;;;17.02;31.41;101251.31;6240901;23;20040;-83
2021/04/03 07:38:29;;;;;;;6.00;2.03;;;;;;;16.06;31.64;101264.91;6207482;23;20044;-81
2021/04/03 07:41:12;;;;;;;8.80;2.03;;;;;;;15.27;32.42;101267.41;6234264;23;20048;-80
2021/04/03 07:43:48;;;;;;;6.00;1.50;;;;;;;15.27;32.77;101256.72;6234257;23;20068;-84
2021/04/03 07:46:19;;;;;;;5.68;2.13;;;;;;;15.29;32.77;101262.84;6230166;23;20101;-82
2021/04/03 07:48:49;;;;;;;5.68;2.00;;;;;;;15.28;32.91;101249.59;6221882;23;20025;-83
2021/04/03 07:51:22;;;;;;;8.68;2.53;;;;;;;15.42;33.60;101263.09;6231571;23;20020;-83
2021/04/03 07:53:53;;;;;;;7.57;2.17;;;;;;;15.60;32.87;101258.56;6232273;23;20057;-82
2021/04/03 07:56:24;;;;;;;7.35;1.92;;;;;;;15.27;33.24;101258.53;6225838;23;20099;-82
2021/04/03 07:58:55;;;;;;;8.52;1.80;;;;;;;14.87;33.84;101265.94;6217920;23;20024;-82
2021/04/03 08:01:42;;;;;;;7.07;2.22;;;;;;;14.78;33.83;101265.56;6224486;23;20035;-81
2021/04/03 08:04:10;;;;;;;9.30;1.75;;;;;;;14.60;34.51;101268.22;6232921;23;20004;-83
2021/04/03 08:06:38;;;;;;;6.30;2.05;;;;;;;14.98;34.69;101268.91;6228032;23;20021;-82
2021/04/03 08:09:15;;;;;;;7.43;2.30;;;;;;;15.67;32.90;101276.00;6231260;23;20477;-81
2021/04/03 08:11:46;;;;;;;6.17;2.00;;;;;;;15.77;32.06;101278.06;6229519;23;20454;-82
2021/04/03 08:14:14;;;;;;;6.72;2.03;;;;;;;15.31;32.48;101266.31;6206364;23;20054;-84
2021/04/03 08:16:42;;;;;;;9.15;2.38;;;;;;;15.28;33.09;101285.13;6229308;23;20016;-85
2021/04/03 08:19:09;;;;;;;5.38;1.80;;;;;;;15.55;32.89;101284.66;6235655;23;20008;-82
2021/04/03 08:21:47;;;;;;;5.35;1.95;;;;;;;15.49;32.67;101288.50;6237597;23;20013;-82
2021/04/03 08:24:15;;;;;;;8.70;2.45;;;;;;;14.34;34.28;101280.09;6235550;23;20050;-83
2021/04/03 08:26:43;;;;;;;7.35;1.85;;;;;;;13.62;36.14;101295.06;6232691;23;20031;-84
2021/04/03 08:29:33;;;;;;;6.90;2.30;;;;;;;13.33;37.14;101299.03;6233548;23;20028;-83
2021/04/03 08:32:01;;;;;;;8.43;2.05;;;;;;;13.77;36.15;101301.50;6234649;23;20025;-84
2021/04/03 08:34:28;;;;;;;6.07;1.65;;;;;;;13.75;36.07;101293.56;6207212;23;20051;-83
2021/04/03 08:36:55;;;;;;;5.63;1.77;;;;;;;13.56;36.32;101300.66;6233833;23;20068;-83
2021/04/03 08:39:24;;;;;;;8.00;1.88;;;;;;;13.14;37.13;101306.03;6233324;23;20032;-82
2021/04/03 08:41:54;;;;;;;8.15;2.38;;;;;;;12.63;38.90;101304.63;6234924;23;20020;-84
2021/04/03 08:44:30;;;;;;;7.72;1.88;;;;;;;11.92;39.31;101308.38;6238155;23;20036;-84
2021/04/03 08:47:01;;;;;;;7.38;2.13;;;;;;;11.64;40.17;101304.97;6222906;23;20028;-83
2021/04/03 08:49:37;;;;;;;6.82;3.08;;;;;;;11.56;41.30;101308.78;6221818;23;20021;-82
2021/04/03 08:52:06;;;;;;;8.18;2.20;;;;;;;11.32;41.33;101307.00;6232398;23;20142;-84
2021/04/03 08:54:37;;;;;;;9.77;2.72;;;;;;;11.15;42.50;101317.34;6204236;23;20024;-82
2021/04/03 08:57:24;;;;;;;5.75;2.45;;;;;;;10.77;43.19;101314.19;6233947;23;20028;-81
2021/04/03 08:59:51;;;;;;;9.80;2.63;;;;;;;10.50;44.57;101313.31;6221293;23;20319;-83
2021/04/03 09:02:17;;;;;;;7.70;2.78;;;;;;;10.31;44.49;101319.25;6198764;23;20024;-82
2021/04/03 09:04:44;;;;;;;14.85;3.13;;;;;;;10.09;44.76;101296.03;6218588;23;20131;-82
2021/04/03 09:07:33;;;;;;;7.80;2.27;;;;;;;9.87;45.75;101315.25;6218251;23;20033;-82
2021/04/03 09:10:07;;;;;;;10.73;3.35;;;;;;;9.65;46.07;101325.59;6194896;23;20470;-81
2021/04/03 09:12:33;;;;;;;;;;;;;;;9.60;46.52;101335.44;6220507;23;20020;-83
2021/04/03 09:15:00;;;;;;;12.85;2.97;;;;;;;9.50;46.63;101333.03;6221358;23;19915;-82
2021/04/03 09:17:28;;;;;;;6.93;2.50;;;;;;;9.58;47.03;101337.25;6223328;23;20029;-83
2021/04/03 09:20:08;;;;;;;12.10;2.78;;;;;;;9.65;46.24;101328.22;6226396;23;20015;-80
2021/04/03 09:22:39;;;;;;;12.57;3.20;;;;;;;9.59;46.73;101331.94;6233833;23;20073;-81
2021/04/03 09:25:11;;;;;;;9.80;3.00;;;;;;;9.69;46.97;101328.09;6232131;23;20434;-82
2021/04/03 09:27:37;;;;;;;8.10;2.60;;;;;;;9.67;46.12;101342.28;6230366;23;20039;-83
2021/04/03 09:30:11;;;;;;;9.48;2.72;;;;;;;9.51;46.43;101325.97;6225900;23;20035;-82
2021/04/03 09:32:40;;;;;;;11.63;3.55;;;;;;;9.64;46.73;101332.66;6216974;23;20035;-81
2021/04/03 09:35:30;;;;;;;10.48;3.03;;;;;;;9.59;46.71;101324.00;6220452;23;20020;-82
2021/04/03 09:38:00;;;;;;;8.60;3.17;;;;;;;9.73;47.56;101337.69;6220819;23;20680;-82
2021/04/03 09:40:43;;;;;;;13.52;3.65;;;;;;;9.88;46.29;101336.38;6216135;23;20050;-82
2021/04/03 09:43:11;;;;;;;9.02;3.03;;;;;;;9.90;46.00;101326.63;6192985;23;20052;-82
2021/04/03 09:45:42;;;;;;;8.60;2.85;;;;;;;9.93;46.01;101321.22;6228493;23;20025;-81
2021/04/03 09:48:11;;;;;;;5.70;2.88;;;;;;;10.04;45.60;101321.78;6229501;23;20024;-84
2021/04/03 09:50:39;;;;;;;7.15;2.45;;;;;;;10.07;45.75;101312.91;6231664;23;20092;-82
2021/04/03 09:53:07;;;;;;;12.13;3.10;;;;;;;10.19;43.76;101315.19;6221566;23;20021;-83
2021/04/03 09:55:36;;;;;;;;;;;;;;;10.12;43.43;101319.75;6218679;23;20020;-84
2021/04/03 09:58:02;;;;;;;9.85;2.90;;;;;;;10.14;44.15;101322.38;6226247;23;19920;-82
2021/04/03 10:00:29;;;;;;;7.22;2.42;;;;;;;10.18;44.09;101321.38;6228918;23;20078;-84
2021/04/03 10:02:57;;;;;;;5.38;2.42;;;;;;;10.26;44.13;101329.97;6217543;23;20076;-83
2021/04/03 10:05:24;;;;;;;9.25;2.72;;;;;;;10.39;44.25;101331.31;6215317;23;20055;-83
2021/04/03 10:07:50;;;;;;;11.05;2.72;;;;;;;10.56;43.83;101317.53;6224648;23;20156;-84
2021/04/03 10:10:16;;;;;;;9.23;2.72;;;;;;;10.72;42.93;101318.78;6227731;23;20024;-83
2021/04/03 10:12:42;;;;;;;7.75;2.85;;;;;;;10.78;42.73;101317.72;6193829;23;20112;-82
2021/04/03 10:15:09;;;;;;;8.65;2.38;;;;;;;10.95;42.90;101327.75;6215431;23;20076;-83
2021/04/03 10:17:35;;;;;;;11.38;2.88;;;;;;;10.96;42.64;101326.84;6213485;23;20025;-81
2021/04/03 10:20:05;;;;;;;11.40;3.17;;;;;;;10.99;43.18;101321.44;6214655;23;20683;-83
2021/04/03 10:22:31;;;;;;;8.82;2.72;;;;;;;11.04;43.17;101303.56;6215282;23;20028;-82
2021/04/03 10:24:57;;;;;;;8.82;2.22;;;;;;;11.22;42.66;101311.75;6216340;23;20020;-83
2021/04/03 10:27:23;;;;;;;7.45;2.70;;;;;;;11.26;42.42;101309.88;6217491;23;20115;-82
2021/04/03 10:29:50;;;;;;;8.68;2.72;;;;;;;11.26;42.58;101312.53;6217289;23;20071;-82
2021/04/03 10:32:16;;;;;;;7.55;2.67;;;;;;;11.34;42.39;101313.09;6219341;23;20029;-83
2021/04/03 10:34:43;;;;;;;9.95;2.58;;;;;;;11.41;41.23;101306.69;6230449;23;20024;-81
2021/04/03 10:37:09;;;;;;;8.82;2.95;;;;;;;11.16;41.81;101322.59;6234854;23;20028;-81
2021/04/03 10:39:37;;;;;;;10.35;2.78;;;;;;;11.30;42.11;101314.16;6222006;23;20025;-82
2021/04/03 10:42:05;;;;;;;6.30;2.80;;;;;;;11.49;42.04;101319.69;6218264;23;20044;-82
2021/04/03 10:44:31;;;;;;;6.43;2.60;;;;;;;11.64;41.16;101313.81;6229936;23;20059;-82
2021/04/03 10:46:58;;;;;;;8.05;2.20;;;;;;;11.59;40.97;101321.06;6223899;23;20017;-82
2021/04/03 10:49:26;;;;;;;10.70;2.72;;;;;;;11.55;40.89;101309.69;6234123;23;20020;-80
2021/04/03 10:51:53;;;;;;;8.43;2.60;;;;;;;11.67;40.65;101311.00;6227052;23;20020;-82
2021/04/03 10:54:21;;;;;;;7.20;2.63;;;;;;;11.85;40.73;101314.81;6220434;23;20028;-83
2021/04/03 10:56:47;;;;;;;9.43;2.20;;;;;;;12.04;40.76;101304.38;6217149;23;20017;-83
2021/04/03 10:59:14;;;;;;;9.13;2.63;;;;;;;12.23;39.69;101308.91;6215596;23;20083;-85
2021/04/03 11:01:42;;;;;;;8.63;2.15;;;;;;;11.93;39.05;101296.81;6195457;23;20303;-83
2021/04/03 11:04:08;;;;;;;9.52;2.28;;;;;;;11.83;39.10;101293.63;6217620;23;20076;-81
2021/04/03 11:06:34;;;;;;;7.07;2.00;;;;;;;11.67;39.48;101303.06;6218245;23;20042;-83
2021/04/03 11:09:02;;;;;;;5.90;2.25;;;;;;;11.56;39.24;101302.59;6219573;23;20020;-83
2021/04/03 11:11:30;;;;;;;7.07;1.98;;;;;;;11.61;39.19;101292.69;6219841;23;20040;-82
2021/04/03 11:13:56;;;;;;;6.50;2.00;;;;;;;11.67;39.00;101304.84;6193223;23;20024;-83
2021/04/03 11:16:22;;;;;;;8.75;2.50;;;;;;;11.63;40.22;101297.94;6214974;23;20021;-83
2021/04/03 11:18:48;;;;;;;7.78;2.33;;;;;;;11.85;39.56;101296.22;6219745;23;20043;-84
2021/04/03 11:21:14;;;;;;;6.82;1.90;;;;;;;12.21;39.25;101293.97;6195023;23;20074;-81
2021/04/03 11:23:41;;;;;;;7.78;2.28;;;;;;;12.58;38.32;101290.69;6223335;23;20012;-85
2021/04/03 11:26:07;;;;;;;6.28;2.15;;;;;;;12.79;37.68;101289.78;6222975;23;20084;-81
2021/04/03 11:28:33;;;;;;;6.18;1.70;;;;;;;12.81;37.89;101287.94;6232546;23;20016;-82
2021/04/03 11:31:00;;;;;;;7.75;2.40;;;;;;;12.91;36.02;101281.28;6234411;23;20024;-84
2021/04/03 11:33:28;;;;;;;8.45;2.05;;;;;;;13.10;37.29;101288.47;6234344;23;20012;-82
2021/04/03 11:35:55;;;;;;;7.53;2.38;;;;;;;13.34;37.00;101282.16;6231665;23;20020;-81
2021/04/03 11:38:22;;;;;;;6.13;2.17;;;;;;;13.40;36.44;101286.31;6225869;23;20021;-85
2021/04/03 11:40:48;;;;;;;6.93;1.80;;;;;;;13.24;35.38;101281.66;6225351;23;20107;-84